createdAt,value
2019-05-14T00:01:18.402Z,4.30
2019-05-14T00:03:46.487Z,3.50
2019-05-14T00:06:13.534Z,3.20
2019-05-14T00:08:41.815Z,3.60
2019-05-14T00:11:09.171Z,3.80
2019-05-14T00:13:36.928Z,3.60
2019-05-14T00:16:04.999Z,4.40
2019-05-14T00:18:32.565Z,3.37
2019-05-14T00:21:01.939Z,3.60
2019-05-14T00:23:29.008Z,3.57
2019-05-14T00:25:58.152Z,2.60
2019-05-14T00:28:25.863Z,3.60
2019-05-14T00:30:52.680Z,2.60
2019-05-14T00:33:22.336Z,3.10
2019-05-14T00:35:48.304Z,3.63
2019-05-14T00:38:14.916Z,2.80
2019-05-14T00:40:42.088Z,3.33
2019-05-14T00:43:08.868Z,2.90
2019-05-14T00:45:38.726Z,3.07
2019-05-14T00:48:05.345Z,3.50
2019-05-14T00:50:31.963Z,3.03
2019-05-14T00:52:58.607Z,2.67
2019-05-14T00:55:25.847Z,3.00
2019-05-14T00:57:52.472Z,2.27
2019-05-14T01:00:21.886Z,2.53
2019-05-14T01:02:48.067Z,3.10
2019-05-14T01:05:14.728Z,3.10
2019-05-14T01:07:42.263Z,2.70
2019-05-14T01:10:11.627Z,1.90
2019-05-14T01:12:40.854Z,2.47
2019-05-14T01:15:11.653Z,2.23
2019-05-14T01:17:36.375Z,2.30
2019-05-14T01:20:03.400Z,1.90
2019-05-14T01:22:31.618Z,2.60
2019-05-14T01:24:58.491Z,1.97
2019-05-14T01:27:26.219Z,2.70
2019-05-14T01:29:52.852Z,2.23
2019-05-14T01:32:19.467Z,2.20
2019-05-14T01:34:46.086Z,2.20
2019-05-14T01:37:12.788Z,2.63
2019-05-14T01:39:41.623Z,2.70
2019-05-14T01:42:07.963Z,2.30
2019-05-14T01:44:34.588Z,1.87
2019-05-14T01:47:01.961Z,2.30
2019-05-14T01:49:31.198Z,2.73
2019-05-14T01:51:57.833Z,2.57
2019-05-14T01:54:24.435Z,2.10
2019-05-14T01:56:51.588Z,2.37
2019-05-14T01:59:21.370Z,1.77
2019-05-14T02:01:48.030Z,2.73
2019-05-14T02:04:14.744Z,2.07
2019-05-14T02:06:41.585Z,1.97
2019-05-14T02:09:08.278Z,2.87
2019-05-14T02:11:36.215Z,2.80
2019-05-14T02:14:02.843Z,3.73
2019-05-14T02:16:31.400Z,3.10
2019-05-14T02:18:58.016Z,2.70
2019-05-14T02:21:25.023Z,3.53
2019-05-14T02:23:51.952Z,3.33
2019-05-14T02:26:18.598Z,3.77
2019-05-14T02:28:45.210Z,2.93
2019-05-14T02:31:12.455Z,4.00
2019-05-14T02:33:39.825Z,3.87
2019-05-14T02:36:10.131Z,4.03
2019-05-14T02:38:38.737Z,4.43
2019-05-14T02:41:03.976Z,4.47
2019-05-14T02:43:30.605Z,4.03
2019-05-14T02:46:10.824Z,3.83
2019-05-14T02:48:29.115Z,2.90
2019-05-14T02:50:54.841Z,4.43
2019-05-14T02:53:21.472Z,4.20
2019-05-14T02:55:49.839Z,3.80
2019-05-14T02:58:20.528Z,3.77
2019-05-14T03:00:45.171Z,3.60
2019-05-14T03:03:12.169Z,3.83
2019-05-14T03:05:40.194Z,3.70
2019-05-14T03:08:09.089Z,3.50
2019-05-14T03:10:35.812Z,3.40
2019-05-14T03:13:02.440Z,3.90
2019-05-14T03:15:29.398Z,3.43
2019-05-14T03:17:56.299Z,4.27
2019-05-14T03:20:22.930Z,3.27
2019-05-14T03:23:01.697Z,3.77
2019-05-14T03:25:19.467Z,4.80
2019-05-14T03:27:49.786Z,4.67
2019-05-14T03:30:15.777Z,4.13
2019-05-14T03:32:43.415Z,4.27
2019-05-14T03:35:13.240Z,4.07
2019-05-14T03:37:39.295Z,3.87
2019-05-14T03:40:09.239Z,4.30
2019-05-14T03:42:39.622Z,4.33
2019-05-14T03:45:05.295Z,4.80
2019-05-14T03:47:32.331Z,4.40
2019-05-14T03:49:59.695Z,4.00
2019-05-14T03:52:29.408Z,4.87
2019-05-14T03:55:01.197Z,4.23
2019-05-14T03:57:25.428Z,4.43
2019-05-14T03:59:52.357Z,3.90
2019-05-14T04:02:19.977Z,4.73
2019-05-14T04:04:50.249Z,4.53
2019-05-14T04:07:19.419Z,4.37
2019-05-14T04:09:49.083Z,4.90
2019-05-14T04:12:18.930Z,4.57
2019-05-14T04:14:45.387Z,4.23
2019-05-14T04:17:16.391Z,4.53
2019-05-14T04:19:44.587Z,4.92
2019-05-14T04:22:12.371Z,4.77
2019-05-14T04:24:41.942Z,10.30
2019-05-14T04:27:12.832Z,34.50
2019-05-14T04:29:39.751Z,8.83
2019-05-14T04:32:09.432Z,5.40
2019-05-14T04:34:39.754Z,8.40
2019-05-14T04:37:05.736Z,6.27
2019-05-14T04:39:33.087Z,5.30
2019-05-14T04:42:00.108Z,4.97
2019-05-14T04:44:29.744Z,6.10
2019-05-14T04:46:56.178Z,5.33
2019-05-14T04:49:23.132Z,5.77
2019-05-14T04:51:50.510Z,4.30
2019-05-14T04:54:19.417Z,6.40
2019-05-14T04:56:45.971Z,7.20
2019-05-14T04:59:12.610Z,5.07
2019-05-14T05:01:40.193Z,21.70
2019-05-14T05:04:09.563Z,7.80
2019-05-14T05:06:39.367Z,6.23
2019-05-14T05:09:09.148Z,10.47
2019-05-14T05:11:35.560Z,16.80
2019-05-14T05:14:02.608Z,8.83
2019-05-14T05:16:29.840Z,5.47
2019-05-14T05:18:59.436Z,7.17
2019-05-14T05:21:28.375Z,7.07
2019-05-14T05:23:55.078Z,3.80
2019-05-14T05:26:22.347Z,4.77
2019-05-14T05:29:02.975Z,3.47
2019-05-14T05:31:18.646Z,3.53
2019-05-14T05:33:45.784Z,3.20
2019-05-14T05:36:12.615Z,4.47
2019-05-14T05:38:39.957Z,3.60
2019-05-14T05:41:08.860Z,3.10
2019-05-14T05:43:35.711Z,3.60
2019-05-14T05:46:02.606Z,3.37
2019-05-14T05:48:29.222Z,3.50
2019-05-14T05:50:58.860Z,3.50
2019-05-14T05:53:25.323Z,3.50
2019-05-14T05:55:51.972Z,3.60
2019-05-14T05:58:19.638Z,3.07
2019-05-14T06:00:49.538Z,3.60
2019-05-14T06:03:15.528Z,3.13
2019-05-14T06:05:42.783Z,2.47
2019-05-14T06:08:09.755Z,2.53
2019-05-14T06:10:39.747Z,3.33
2019-05-14T06:13:05.931Z,3.40
2019-05-14T06:15:44.704Z,3.50
2019-05-14T06:18:17.077Z,2.70
2019-05-14T06:20:33.259Z,2.70
2019-05-14T06:22:59.911Z,2.93
2019-05-14T06:25:31.214Z,2.60
2019-05-14T06:27:58.920Z,2.70
2019-05-14T06:30:35.637Z,2.77
2019-05-14T06:33:02.324Z,2.10
2019-05-14T06:35:29.280Z,2.80
2019-05-14T06:37:58.165Z,3.00
2019-05-14T06:40:25.511Z,2.77
2019-05-14T06:42:52.289Z,2.30
2019-05-14T06:45:19.003Z,3.40
2019-05-14T06:47:45.961Z,3.33
2019-05-14T06:50:12.948Z,2.63
2019-05-14T06:52:39.577Z,3.40
2019-05-14T06:55:08.793Z,3.00
2019-05-14T06:57:34.943Z,3.60
2019-05-14T07:00:01.706Z,3.70
2019-05-14T07:02:28.756Z,3.37
2019-05-14T07:04:55.911Z,3.43
2019-05-14T07:07:24.338Z,3.43
2019-05-14T07:09:50.967Z,2.97
2019-05-14T07:12:19.328Z,3.10
2019-05-14T07:14:48.158Z,2.77
2019-05-14T07:17:18.285Z,2.73
2019-05-14T07:19:45.033Z,2.40
2019-05-14T07:22:12.222Z,2.87
2019-05-14T07:24:40.621Z,3.07
2019-05-14T07:27:09.380Z,3.60
2019-05-14T07:29:38.733Z,2.70
2019-05-14T07:32:05.726Z,2.47
2019-05-14T07:34:33.473Z,2.63
2019-05-14T07:37:00.193Z,3.50
2019-05-14T07:39:29.183Z,2.83
2019-05-14T07:41:55.461Z,2.47
2019-05-14T07:44:22.107Z,2.63
2019-05-14T07:46:48.724Z,4.10
2019-05-14T07:49:18.494Z,4.70
2019-05-14T07:51:47.993Z,2.80
2019-05-14T07:54:14.559Z,3.30
2019-05-14T07:56:43.323Z,2.70
2019-05-14T07:59:10.267Z,3.13
2019-05-14T08:01:38.888Z,2.63
2019-05-14T08:04:05.692Z,2.87
2019-05-14T08:06:34.031Z,2.60
2019-05-14T08:09:08.452Z,3.00
2019-05-14T08:11:35.256Z,2.83
2019-05-14T08:14:01.910Z,2.37
2019-05-14T08:16:28.963Z,3.00
2019-05-14T08:18:55.996Z,3.30
2019-05-14T08:21:22.627Z,2.30
2019-05-14T08:40:48.842Z,2.17
2019-05-14T08:43:18.311Z,3.20
2019-05-14T08:45:45.507Z,2.00
2019-05-14T08:48:12.752Z,2.07
2019-05-14T09:07:50.044Z,2.03
2019-05-14T09:10:19.325Z,1.73
2019-05-14T09:12:46.091Z,2.00
2019-05-14T09:15:12.811Z,2.00
2019-05-14T09:17:39.860Z,1.70
2019-05-14T09:20:08.477Z,2.43
2019-05-14T09:22:36.330Z,2.67
2019-05-14T09:25:03.779Z,1.87
2019-05-14T09:27:30.732Z,1.60
2019-05-14T09:29:59.095Z,2.07
2019-05-14T09:32:29.152Z,1.73
2019-05-14T09:34:55.592Z,1.87
2019-05-14T09:37:22.204Z,1.97
2019-05-14T09:39:49.245Z,1.50
2019-05-14T09:42:19.209Z,4.07
2019-05-14T09:44:45.024Z,2.47
2019-05-14T09:47:11.632Z,2.00
2019-05-14T09:49:39.387Z,2.60
2019-05-14T09:52:05.982Z,2.23
2019-05-14T09:54:32.583Z,1.97
2019-05-14T09:56:59.364Z,3.90
2019-05-14T09:59:27.996Z,1.90
2019-05-14T10:01:54.614Z,1.57
2019-05-14T10:04:21.236Z,2.37
2019-05-14T10:06:48.483Z,1.80
2019-05-14T10:09:15.453Z,2.23
2019-05-14T10:11:42.047Z,2.43
2019-05-14T10:14:08.660Z,1.70
2019-05-14T10:16:35.255Z,1.93
2019-05-14T10:19:02.034Z,2.57
2019-05-14T10:21:29.321Z,2.13
2019-05-14T10:23:58.053Z,1.63
2019-05-14T10:26:28.712Z,1.90
2019-05-14T10:28:54.723Z,2.10
2019-05-14T10:31:21.657Z,2.07
2019-05-14T10:33:48.760Z,1.90
2019-05-14T10:36:15.491Z,1.50
2019-05-14T10:38:42.092Z,1.37
2019-05-14T10:41:09.428Z,1.90
2019-05-14T10:43:38.961Z,1.77
2019-05-14T10:46:05.248Z,1.33
2019-05-14T10:48:31.904Z,1.33
2019-05-14T10:51:03.205Z,1.13
2019-05-14T10:53:28.973Z,1.80
2019-05-14T10:55:58.086Z,1.80
2019-05-14T10:58:24.147Z,1.43
2019-05-14T11:00:51.153Z,1.07
2019-05-14T11:03:18.681Z,1.10
2019-05-14T11:05:48.031Z,1.30
2019-05-14T11:08:14.927Z,1.53
2019-05-14T11:10:42.766Z,1.30
2019-05-14T11:13:10.044Z,1.00
2019-05-14T11:15:39.282Z,1.30
2019-05-14T11:18:08.474Z,1.53
2019-05-14T11:20:35.079Z,1.20
2019-05-14T11:23:01.702Z,1.57
2019-05-14T11:25:29.901Z,1.40
2019-05-14T11:27:58.656Z,1.27
2019-05-14T11:30:28.595Z,1.33
2019-05-14T11:32:55.030Z,2.10
2019-05-14T11:35:22.174Z,1.60
2019-05-14T11:37:49.115Z,1.17
2019-05-14T11:40:18.906Z,1.00
2019-05-14T11:42:45.995Z,1.27
2019-05-14T11:45:13.750Z,1.57
2019-05-14T11:47:41.204Z,1.73
2019-05-14T11:50:09.855Z,1.20
2019-05-14T11:52:38.816Z,1.30
2019-05-14T11:55:08.879Z,2.60
2019-05-14T11:57:35.431Z,1.80
2019-05-14T12:00:04.824Z,1.40
2019-05-14T12:02:34.475Z,1.90
2019-05-14T12:05:01.688Z,1.90
2019-05-14T12:07:30.193Z,0.70
2019-05-14T12:09:58.543Z,1.40
2019-05-14T12:12:25.794Z,1.63
2019-05-14T12:14:52.763Z,3.10
2019-05-14T12:17:19.406Z,3.00
2019-05-14T12:19:48.485Z,1.70
2019-05-14T12:22:15.827Z,1.27
2019-05-14T12:24:43.499Z,0.90
2019-05-14T12:27:11.053Z,1.93
2019-05-14T12:29:39.818Z,2.20
2019-05-14T12:32:11.916Z,1.23
2019-05-14T12:34:35.367Z,0.97
2019-05-14T12:37:02.011Z,1.33
2019-05-14T12:39:29.483Z,1.67
2019-05-14T12:41:58.179Z,1.50
2019-05-14T12:44:25.704Z,1.47
2019-05-14T12:46:52.487Z,1.37
2019-05-14T12:49:19.100Z,2.27
2019-05-14T12:51:49.182Z,1.33
2019-05-14T12:54:15.479Z,1.47
2019-05-14T12:56:42.784Z,1.50
2019-05-14T12:59:10.144Z,1.50
2019-05-14T13:01:36.809Z,1.60
2019-05-14T13:04:04.321Z,1.60
2019-05-14T13:06:31.208Z,1.00
2019-05-14T13:08:58.686Z,1.10
2019-05-14T13:11:26.903Z,1.03
2019-05-14T13:13:53.988Z,1.17
2019-05-14T13:16:21.208Z,1.00
2019-05-14T13:18:49.968Z,0.87
2019-05-14T13:21:19.253Z,1.43
2019-05-14T13:23:48.767Z,1.13
2019-05-14T13:26:18.706Z,0.83
2019-05-14T13:28:45.250Z,0.83
2019-05-14T13:31:12.296Z,1.00
2019-05-14T13:33:39.516Z,1.37
2019-05-14T13:36:06.297Z,1.20
2019-05-14T13:38:33.356Z,0.80
2019-05-14T13:41:01.776Z,1.53
2019-05-14T13:43:30.398Z,0.97
2019-05-14T13:45:58.653Z,1.60
2019-05-14T13:48:25.886Z,1.20
2019-05-14T13:50:52.607Z,1.07
2019-05-14T13:53:19.680Z,1.07
2019-05-14T13:55:50.710Z,1.03
2019-05-14T13:58:15.267Z,1.20
2019-05-14T14:00:42.116Z,0.87
2019-05-14T14:03:10.240Z,0.80
2019-05-14T14:05:39.230Z,0.73
2019-05-14T14:08:08.798Z,1.27
2019-05-14T14:10:36.872Z,0.93
2019-05-14T14:13:10.006Z,1.90
2019-05-14T14:15:34.951Z,0.80
2019-05-14T14:18:01.969Z,0.70
2019-05-14T14:20:29.187Z,1.33
2019-05-14T14:22:58.672Z,0.80
2019-05-14T14:25:25.544Z,0.63
2019-05-14T14:27:52.275Z,1.00
2019-05-14T14:30:19.498Z,0.77
2019-05-14T14:32:49.266Z,1.00
2019-05-14T14:35:15.125Z,0.90
2019-05-14T14:37:41.864Z,0.80
2019-05-14T14:40:10.164Z,1.00
2019-05-14T14:42:40.065Z,0.70
2019-05-14T14:45:08.449Z,0.93
2019-05-14T14:47:36.277Z,0.87
2019-05-14T14:50:03.204Z,0.50
2019-05-14T14:52:30.451Z,1.00
2019-05-14T14:54:58.950Z,0.80
2019-05-14T14:57:29.842Z,0.70
2019-05-14T14:59:56.358Z,0.70
2019-05-14T15:02:24.079Z,0.60
2019-05-14T15:04:52.244Z,0.53
2019-05-14T15:07:19.001Z,0.65
2019-05-14T15:09:48.737Z,1.10
2019-05-14T15:12:19.894Z,0.77
2019-05-14T15:14:48.770Z,0.70
2019-05-14T15:17:18.485Z,0.80
2019-05-14T15:19:45.286Z,0.80
2019-05-14T15:22:12.791Z,0.50
2019-05-14T15:24:40.808Z,0.67
2019-05-14T15:27:14.795Z,0.60
2019-05-14T15:29:39.037Z,0.67
2019-05-14T15:32:05.892Z,0.60
2019-05-14T15:34:33.149Z,0.80
2019-05-14T15:37:00.408Z,0.70
2019-05-14T15:39:29.861Z,0.70
2019-05-14T15:42:03.857Z,0.90
2019-05-14T15:44:25.481Z,0.87
2019-05-14T15:46:52.428Z,0.80
2019-05-14T15:49:19.392Z,0.70
2019-05-14T15:51:46.728Z,0.60
2019-05-14T15:54:35.252Z,0.70
2019-05-14T15:56:43.787Z,0.77
2019-05-14T15:59:10.436Z,0.50
2019-05-14T16:01:39.819Z,0.53
2019-05-14T16:04:11.142Z,0.63
2019-05-14T16:06:38.454Z,1.07
2019-05-14T16:09:04.939Z,0.80
2019-05-14T16:11:32.039Z,0.60
2019-05-14T16:13:59.103Z,0.90
2019-05-14T16:16:28.684Z,0.93
2019-05-14T16:18:55.151Z,0.90
2019-05-14T16:21:22.111Z,0.47
2019-05-14T16:23:49.092Z,1.40
2019-05-14T16:26:18.555Z,0.67
2019-05-14T16:28:45.135Z,0.87
2019-05-14T16:31:12.282Z,1.00
2019-05-14T16:33:40.514Z,0.90
2019-05-14T16:36:09.958Z,0.80
2019-05-14T16:38:39.497Z,0.80
2019-05-14T16:41:06.833Z,1.50
2019-05-14T16:43:35.637Z,0.97
2019-05-14T16:46:02.773Z,0.60
2019-05-14T16:48:29.606Z,0.60
2019-05-14T16:50:58.418Z,1.00
2019-05-14T16:53:25.342Z,0.60
2019-05-14T16:55:52.308Z,0.50
2019-05-14T16:58:19.784Z,0.60
2019-05-14T17:00:47.187Z,0.77
2019-05-14T17:03:14.267Z,0.47
2019-05-14T17:05:41.124Z,0.60
2019-05-14T17:08:09.951Z,0.70
2019-05-14T17:10:38.631Z,0.70
2019-05-14T17:13:08.899Z,0.77
2019-05-14T17:15:35.310Z,0.67
2019-05-14T17:18:03.046Z,0.80
2019-05-14T17:20:30.469Z,0.97
2019-05-14T17:22:59.437Z,1.20
2019-05-14T17:25:30.399Z,0.90
2019-05-14T17:27:59.178Z,0.80
2019-05-14T17:30:29.060Z,0.70
2019-05-14T17:32:55.564Z,0.80
2019-05-14T17:35:22.362Z,1.03
2019-05-14T17:37:49.831Z,1.00
2019-05-14T17:40:17.033Z,0.60
2019-05-14T17:42:48.566Z,0.60
2019-05-14T17:45:15.857Z,0.90
2019-05-14T17:47:42.791Z,0.80
2019-05-14T17:50:10.145Z,1.00
2019-05-14T17:52:42.852Z,0.80
2019-05-14T17:55:11.536Z,0.87
2019-05-14T17:57:36.182Z,1.00
2019-05-14T18:00:04.277Z,0.97
2019-05-14T18:02:31.591Z,0.80
2019-05-14T18:04:59.429Z,1.30
2019-05-14T18:07:28.631Z,1.17
2019-05-14T18:09:55.840Z,1.07
2019-05-14T18:12:24.039Z,1.00
2019-05-14T18:14:50.643Z,1.20
2019-05-14T18:17:18.842Z,1.10
2019-05-14T18:19:48.202Z,1.13
2019-05-14T18:22:14.879Z,1.40
2019-05-14T18:24:41.485Z,1.43
2019-05-14T18:27:08.487Z,1.00
2019-05-14T18:29:35.104Z,1.20
2019-05-14T18:32:01.987Z,1.00
2019-05-14T18:34:30.144Z,1.37
2019-05-14T18:37:00.167Z,1.00
2019-05-14T18:39:25.263Z,1.23
2019-05-14T18:41:52.467Z,1.30
2019-05-14T18:44:19.623Z,1.23
2019-05-14T18:46:48.671Z,1.53
2019-05-14T18:49:19.436Z,1.23
2019-05-14T18:51:45.626Z,1.20
2019-05-14T18:54:13.347Z,1.30
2019-05-14T18:59:21.395Z,1.50
2019-05-14T19:01:53.385Z,1.40
2019-05-14T19:04:19.038Z,1.60
2019-05-14T19:06:48.106Z,1.87
2019-05-14T19:09:14.207Z,1.70
2019-05-14T19:11:40.820Z,2.20
2019-05-14T19:14:08.986Z,1.70
2019-05-14T19:16:38.125Z,1.90
2019-05-14T19:19:07.948Z,2.23
2019-05-14T19:21:35.175Z,2.60
2019-05-14T19:24:01.790Z,2.30
2019-05-14T19:26:36.530Z,2.20
2019-05-14T19:28:58.331Z,2.30
2019-05-14T19:31:24.937Z,2.47
2019-05-14T19:33:51.631Z,1.92
2019-05-14T19:36:18.778Z,2.00
2019-05-14T19:38:48.003Z,1.97
2019-05-14T19:41:16.197Z,1.50
2019-05-14T19:43:43.429Z,2.17
2019-05-14T19:46:10.096Z,1.63
2019-05-14T19:48:37.465Z,1.73
2019-05-14T19:51:08.228Z,1.20
2019-05-14T19:53:35.044Z,1.77
2019-05-14T19:56:03.292Z,1.50
2019-05-14T19:58:30.706Z,1.73
2019-05-14T20:00:57.412Z,2.00
2019-05-14T20:03:24.475Z,2.67
2019-05-14T20:05:51.706Z,2.27
2019-05-14T20:08:19.122Z,2.40
2019-05-14T20:10:48.763Z,1.90
2019-05-14T20:13:15.052Z,2.53
2019-05-14T20:15:42.298Z,3.00
2019-05-14T20:18:09.807Z,2.03
2019-05-14T20:20:38.295Z,2.73
2019-05-14T20:23:05.956Z,2.50
2019-05-14T20:25:33.375Z,2.40
2019-05-14T20:28:00.107Z,1.93
2019-05-14T20:30:29.514Z,2.50
2019-05-14T20:32:59.060Z,2.23
2019-05-14T20:35:31.578Z,3.50
2019-05-14T20:37:55.043Z,3.67
2019-05-14T20:40:22.999Z,3.50
2019-05-14T20:42:50.059Z,2.77
2019-05-14T20:45:19.135Z,2.67
2019-05-14T20:50:28.766Z,2.50
2019-05-14T20:52:56.119Z,2.40
2019-05-14T20:55:24.612Z,3.00
2019-05-14T20:57:51.599Z,2.70
2019-05-14T21:00:18.327Z,2.90
2019-05-14T21:02:45.051Z,3.37
2019-05-14T21:05:13.990Z,4.30
2019-05-14T21:07:41.044Z,3.60
2019-05-14T21:10:08.206Z,4.00
2019-05-14T21:12:35.311Z,4.40
2019-05-14T21:15:01.961Z,3.87
2019-05-14T21:17:29.055Z,3.93
2019-05-14T21:19:56.099Z,4.00
2019-05-14T21:22:23.040Z,3.53
2019-05-14T21:24:52.979Z,4.00
2019-05-14T21:27:18.879Z,3.93
2019-05-14T21:29:45.823Z,3.90
2019-05-14T21:32:13.515Z,2.93
2019-05-14T21:34:40.134Z,4.07
2019-05-14T21:37:08.973Z,4.17
2019-05-14T21:39:38.336Z,4.10
2019-05-14T21:42:04.667Z,3.93
2019-05-14T21:44:31.295Z,3.90
2019-05-14T21:46:58.902Z,4.30
2019-05-14T21:49:28.358Z,4.50
2019-05-14T21:51:54.219Z,4.10
2019-05-14T21:54:20.816Z,3.70
2019-05-14T21:56:49.555Z,4.07
2019-05-14T21:59:18.344Z,4.47
2019-05-14T22:01:45.363Z,4.47
2019-05-14T22:04:11.970Z,4.47
2019-05-14T22:06:41.261Z,3.67
2019-05-14T22:09:08.724Z,4.40
2019-05-14T22:11:36.375Z,3.90
2019-05-14T22:14:03.319Z,4.50
2019-05-14T22:16:30.372Z,4.67
2019-05-14T22:18:59.307Z,4.00
2019-05-14T22:21:26.202Z,3.87
2019-05-14T22:23:53.968Z,4.37
2019-05-14T22:26:20.908Z,4.40
2019-05-14T22:28:48.023Z,4.23
2019-05-14T22:31:17.104Z,4.80
2019-05-14T22:33:44.124Z,3.87
2019-05-14T22:36:11.200Z,4.20
2019-05-14T22:38:38.914Z,4.40
2019-05-14T22:41:08.299Z,4.13
2019-05-14T22:43:34.852Z,4.53
2019-05-14T22:46:01.479Z,3.93
2019-05-14T22:48:29.246Z,4.20
2019-05-14T22:50:59.133Z,3.60
2019-05-14T22:53:27.854Z,3.53
2019-05-14T22:55:55.359Z,4.97
2019-05-14T22:58:25.726Z,4.47
2019-05-14T23:01:06.727Z,4.47
2019-05-14T23:03:21.117Z,4.37
2019-05-14T23:05:48.565Z,4.17
2019-05-14T23:08:18.490Z,4.50
2019-05-14T23:10:45.582Z,5.17
2019-05-14T23:13:12.523Z,4.33
2019-05-14T23:15:39.468Z,5.10
2019-05-14T23:18:08.528Z,4.70
2019-05-14T23:20:39.069Z,5.83
2019-05-14T23:23:05.267Z,6.20
2019-05-14T23:25:32.108Z,6.53
2019-05-14T23:27:59.150Z,5.90
2019-05-14T23:30:30.107Z,5.90
2019-05-14T23:32:56.753Z,5.70
2019-05-14T23:35:23.643Z,4.80
2019-05-14T23:37:50.667Z,5.83
2019-05-14T23:40:18.154Z,5.37
2019-05-14T23:42:48.782Z,6.33
2019-05-14T23:45:15.715Z,5.50
2019-05-14T23:47:42.655Z,5.53
2019-05-14T23:50:10.024Z,6.37
2019-05-14T23:52:38.797Z,6.07
2019-05-14T23:55:08.351Z,6.20
2019-05-14T23:57:34.663Z,6.87
